sensor_id;sensor_type;location;lat;lon;timestamp;temperature;humidity
20070;DHT22;10195;50.868;4.382;2023-05-17T00:01:50;10.30;99.90
20070;DHT22;10195;50.868;4.382;2023-05-17T00:04:15;10.30;99.90
20070;DHT22;10195;50.868;4.382;2023-05-17T00:06:41;10.40;99.90
20070;DHT22;10195;50.868;4.382;2023-05-17T00:09:07;10.40;99.90
20070;DHT22;10195;50.868;4.382;2023-05-17T00:11:33;10.50;99.90
20070;DHT22;10195;50.868;4.382;2023-05-17T00:13:59;10.40;99.90
20070;DHT22;10195;50.868;4.382;2023-05-17T00:16:25;10.40;99.90
20070;DHT22;10195;50.868;4.382;2023-05-17T00:18:50;10.50;99.90
20070;DHT22;10195;50.868;4.382;2023-05-17T00:21:16;10.40;99.90
20070;DHT22;10195;50.868;4.382;2023-05-17T00:23:42;10.40;99.90
20070;DHT22;10195;50.868;4.382;2023-05-17T00:26:07;10.30;99.90
20070;DHT22;10195;50.868;4.382;2023-05-17T00:28:33;10.20;99.90
20070;DHT22;10195;50.868;4.382;2023-05-17T00:30:59;10.20;99.90
20070;DHT22;10195;50.868;4.382;2023-05-17T00:33:24;10.30;99.90
20070;DHT22;10195;50.868;4.382;2023-05-17T00:35:50;10.30;99.90
20070;DHT22;10195;50.868;4.382;2023-05-17T00:38:16;10.30;99.90
20070;DHT22;10195;50.868;4.382;2023-05-17T00:40:41;10.30;99.90
20070;DHT22;10195;50.868;4.382;2023-05-17T00:43:07;10.20;99.90
20070;DHT22;10195;50.868;4.382;2023-05-17T00:45:33;10.20;99.90
20070;DHT22;10195;50.868;4.382;2023-05-17T00:47:58;10.20;99.90
20070;DHT22;10195;50.868;4.382;2023-05-17T00:50:24;10.20;99.90
20070;DHT22;10195;50.868;4.382;2023-05-17T00:52:50;10.10;99.90
20070;DHT22;10195;50.868;4.382;2023-05-17T00:55:16;10.10;99.90
20070;DHT22;10195;50.868;4.382;2023-05-17T00:57:44;10.00;99.90
20070;DHT22;10195;50.868;4.382;2023-05-17T01:00:10;10.00;99.90
20070;DHT22;10195;50.868;4.382;2023-05-17T01:02:36;10.00;99.90
20070;DHT22;10195;50.868;4.382;2023-05-17T01:05:03;9.90;99.90
20070;DHT22;10195;50.868;4.382;2023-05-17T01:07:28;9.90;99.90
20070;DHT22;10195;50.868;4.382;2023-05-17T01:09:54;9.90;99.90
20070;DHT22;10195;50.868;4.382;2023-05-17T01:15:14;9.90;99.90
20070;DHT22;10195;50.868;4.382;2023-05-17T01:23:21;9.90;99.90
20070;DHT22;10195;50.868;4.382;2023-05-17T01:26:15;9.90;99.90
20070;DHT22;10195;50.868;4.382;2023-05-17T01:28:45;9.90;99.90
20070;DHT22;10195;50.868;4.382;2023-05-17T01:31:12;9.90;99.90
20070;DHT22;10195;50.868;4.382;2023-05-17T01:33:38;9.90;99.90
20070;DHT22;10195;50.868;4.382;2023-05-17T01:36:05;9.90;99.90
20070;DHT22;10195;50.868;4.382;2023-05-17T01:38:30;9.80;99.90
20070;DHT22;10195;50.868;4.382;2023-05-17T01:41:17;9.70;99.90
20070;DHT22;10195;50.868;4.382;2023-05-17T01:46:54;9.60;99.90
20070;DHT22;10195;50.868;4.382;2023-05-17T01:49:35;9.70;99.90
20070;DHT22;10195;50.868;4.382;2023-05-17T01:52:18;9.60;99.90
20070;DHT22;10195;50.868;4.382;2023-05-17T01:54:48;9.60;99.90
20070;DHT22;10195;50.868;4.382;2023-05-17T01:57:18;9.70;99.90
20070;DHT22;10195;50.868;4.382;2023-05-17T01:59:45;9.70;99.90
20070;DHT22;10195;50.868;4.382;2023-05-17T02:02:12;9.70;99.90
20070;DHT22;10195;50.868;4.382;2023-05-17T02:04:38;9.70;99.90
20070;DHT22;10195;50.868;4.382;2023-05-17T02:07:04;9.70;99.90
20070;DHT22;10195;50.868;4.382;2023-05-17T02:09:29;9.60;99.90
20070;DHT22;10195;50.868;4.382;2023-05-17T02:11:55;9.60;99.90
20070;DHT22;10195;50.868;4.382;2023-05-17T02:14:21;9.60;99.90
20070;DHT22;10195;50.868;4.382;2023-05-17T02:16:47;9.50;99.90
20070;DHT22;10195;50.868;4.382;2023-05-17T02:19:12;9.50;99.90
20070;DHT22;10195;50.868;4.382;2023-05-17T02:21:39;9.50;99.90
20070;DHT22;10195;50.868;4.382;2023-05-17T02:24:05;9.50;99.90
20070;DHT22;10195;50.868;4.382;2023-05-17T02:26:31;9.50;99.90
20070;DHT22;10195;50.868;4.382;2023-05-17T02:28:57;9.50;99.90
20070;DHT22;10195;50.868;4.382;2023-05-17T02:31:23;9.50;99.90
20070;DHT22;10195;50.868;4.382;2023-05-17T02:33:51;9.40;99.90
20070;DHT22;10195;50.868;4.382;2023-05-17T02:36:17;9.40;99.90
20070;DHT22;10195;50.868;4.382;2023-05-17T02:38:43;9.40;99.90
20070;DHT22;10195;50.868;4.382;2023-05-17T02:41:08;9.40;99.90
20070;DHT22;10195;50.868;4.382;2023-05-17T02:43:34;9.40;99.90
20070;DHT22;10195;50.868;4.382;2023-05-17T02:46:00;9.40;99.90
20070;DHT22;10195;50.868;4.382;2023-05-17T02:48:25;9.40;99.90
20070;DHT22;10195;50.868;4.382;2023-05-17T02:50:51;9.40;99.90
20070;DHT22;10195;50.868;4.382;2023-05-17T02:53:17;9.40;99.90
20070;DHT22;10195;50.868;4.382;2023-05-17T02:55:42;9.40;99.90
20070;DHT22;10195;50.868;4.382;2023-05-17T02:58:08;9.40;99.90
20070;DHT22;10195;50.868;4.382;2023-05-17T03:00:33;9.40;99.90
20070;DHT22;10195;50.868;4.382;2023-05-17T03:02:59;9.40;99.90
20070;DHT22;10195;50.868;4.382;2023-05-17T03:05:26;9.30;99.90
20070;DHT22;10195;50.868;4.382;2023-05-17T03:07:51;9.30;99.90
20070;DHT22;10195;50.868;4.382;2023-05-17T03:10:17;9.40;99.90
20070;DHT22;10195;50.868;4.382;2023-05-17T03:12:43;9.40;99.90
20070;DHT22;10195;50.868;4.382;2023-05-17T03:15:11;9.40;99.90
20070;DHT22;10195;50.868;4.382;2023-05-17T03:17:37;9.50;99.90
20070;DHT22;10195;50.868;4.382;2023-05-17T03:20:03;9.50;99.90
20070;DHT22;10195;50.868;4.382;2023-05-17T03:22:30;9.50;99.90
20070;DHT22;10195;50.868;4.382;2023-05-17T03:24:56;9.50;99.90
20070;DHT22;10195;50.868;4.382;2023-05-17T03:27:22;9.40;99.90
20070;DHT22;10195;50.868;4.382;2023-05-17T03:29:47;9.40;99.90
20070;DHT22;10195;50.868;4.382;2023-05-17T03:32:13;9.30;99.90
20070;DHT22;10195;50.868;4.382;2023-05-17T03:34:39;9.30;99.90
20070;DHT22;10195;50.868;4.382;2023-05-17T03:37:04;9.30;99.90
20070;DHT22;10195;50.868;4.382;2023-05-17T03:39:30;9.20;99.90
20070;DHT22;10195;50.868;4.382;2023-05-17T03:41:55;9.20;99.90
20070;DHT22;10195;50.868;4.382;2023-05-17T03:44:21;9.20;99.90
20070;DHT22;10195;50.868;4.382;2023-05-17T03:46:47;9.20;99.90
20070;DHT22;10195;50.868;4.382;2023-05-17T03:49:12;9.20;99.90
20070;DHT22;10195;50.868;4.382;2023-05-17T03:51:38;9.30;99.90
20070;DHT22;10195;50.868;4.382;2023-05-17T03:54:04;9.30;99.90
20070;DHT22;10195;50.868;4.382;2023-05-17T03:56:30;9.40;99.90
20070;DHT22;10195;50.868;4.382;2023-05-17T03:58:56;9.40;99.90
20070;DHT22;10195;50.868;4.382;2023-05-17T04:01:22;9.50;99.90
20070;DHT22;10195;50.868;4.382;2023-05-17T04:03:48;9.60;99.90
20070;DHT22;10195;50.868;4.382;2023-05-17T04:06:13;9.60;99.90
20070;DHT22;10195;50.868;4.382;2023-05-17T04:08:40;9.60;99.90
20070;DHT22;10195;50.868;4.382;2023-05-17T04:11:05;9.70;99.90
20070;DHT22;10195;50.868;4.382;2023-05-17T04:13:41;9.60;99.90
20070;DHT22;10195;50.868;4.382;2023-05-17T04:16:07;9.60;99.90
20070;DHT22;10195;50.868;4.382;2023-05-17T04:18:37;9.70;99.90
20070;DHT22;10195;50.868;4.382;2023-05-17T04:21:04;9.80;99.90
20070;DHT22;10195;50.868;4.382;2023-05-17T04:23:30;9.80;99.90
20070;DHT22;10195;50.868;4.382;2023-05-17T04:25:56;9.80;99.90
20070;DHT22;10195;50.868;4.382;2023-05-17T04:28:22;10.00;99.90
20070;DHT22;10195;50.868;4.382;2023-05-17T04:30:48;10.10;99.90
20070;DHT22;10195;50.868;4.382;2023-05-17T04:33:14;10.00;99.90
20070;DHT22;10195;50.868;4.382;2023-05-17T04:35:40;10.10;99.90
20070;DHT22;10195;50.868;4.382;2023-05-17T04:38:07;10.20;99.90
20070;DHT22;10195;50.868;4.382;2023-05-17T04:40:33;10.30;99.90
20070;DHT22;10195;50.868;4.382;2023-05-17T04:42:58;10.50;99.90
20070;DHT22;10195;50.868;4.382;2023-05-17T04:45:24;10.60;99.90
20070;DHT22;10195;50.868;4.382;2023-05-17T04:47:50;10.80;99.90
20070;DHT22;10195;50.868;4.382;2023-05-17T04:50:17;10.80;99.90
20070;DHT22;10195;50.868;4.382;2023-05-17T04:52:43;10.80;99.90
20070;DHT22;10195;50.868;4.382;2023-05-17T04:55:08;10.90;99.90
20070;DHT22;10195;50.868;4.382;2023-05-17T04:57:34;10.60;99.90
20070;DHT22;10195;50.868;4.382;2023-05-17T05:00:04;10.50;99.90
20070;DHT22;10195;50.868;4.382;2023-05-17T05:02:34;10.50;99.90
20070;DHT22;10195;50.868;4.382;2023-05-17T05:05:00;10.60;99.90
20070;DHT22;10195;50.868;4.382;2023-05-17T05:07:26;10.60;99.90
20070;DHT22;10195;50.868;4.382;2023-05-17T05:09:52;10.60;99.90
20070;DHT22;10195;50.868;4.382;2023-05-17T05:12:17;10.70;99.90
20070;DHT22;10195;50.868;4.382;2023-05-17T05:14:43;10.70;99.90
20070;DHT22;10195;50.868;4.382;2023-05-17T05:17:09;10.90;99.90
20070;DHT22;10195;50.868;4.382;2023-05-17T05:19:34;11.00;99.90
20070;DHT22;10195;50.868;4.382;2023-05-17T05:22:00;11.30;99.90
20070;DHT22;10195;50.868;4.382;2023-05-17T05:24:26;11.50;99.90
20070;DHT22;10195;50.868;4.382;2023-05-17T05:26:51;11.80;99.90
20070;DHT22;10195;50.868;4.382;2023-05-17T05:29:18;12.00;99.90
20070;DHT22;10195;50.868;4.382;2023-05-17T05:31:43;12.20;99.90
20070;DHT22;10195;50.868;4.382;2023-05-17T05:34:09;12.20;99.90
20070;DHT22;10195;50.868;4.382;2023-05-17T05:36:35;12.30;99.90
20070;DHT22;10195;50.868;4.382;2023-05-17T05:39:01;12.40;99.90
20070;DHT22;10195;50.868;4.382;2023-05-17T05:41:27;12.60;99.90
20070;DHT22;10195;50.868;4.382;2023-05-17T05:43:52;12.80;99.90
20070;DHT22;10195;50.868;4.382;2023-05-17T05:46:18;13.00;99.90
20070;DHT22;10195;50.868;4.382;2023-05-17T05:48:43;13.30;99.90
20070;DHT22;10195;50.868;4.382;2023-05-17T05:51:09;13.70;99.90
20070;DHT22;10195;50.868;4.382;2023-05-17T05:53:35;13.90;99.90
20070;DHT22;10195;50.868;4.382;2023-05-17T05:56:02;14.20;99.90
20070;DHT22;10195;50.868;4.382;2023-05-17T05:58:28;14.50;99.90
20070;DHT22;10195;50.868;4.382;2023-05-17T06:00:54;15.00;99.90
20070;DHT22;10195;50.868;4.382;2023-05-17T06:03:20;15.00;99.90
20070;DHT22;10195;50.868;4.382;2023-05-17T06:05:45;14.70;99.90
20070;DHT22;10195;50.868;4.382;2023-05-17T06:08:11;14.60;99.90
20070;DHT22;10195;50.868;4.382;2023-05-17T06:10:37;14.60;99.90
20070;DHT22;10195;50.868;4.382;2023-05-17T06:13:02;14.80;99.90
20070;DHT22;10195;50.868;4.382;2023-05-17T06:15:30;15.00;99.90
20070;DHT22;10195;50.868;4.382;2023-05-17T06:17:56;14.90;99.90
20070;DHT22;10195;50.868;4.382;2023-05-17T06:20:22;15.00;99.90
20070;DHT22;10195;50.868;4.382;2023-05-17T06:22:47;14.90;99.90
20070;DHT22;10195;50.868;4.382;2023-05-17T06:25:13;13.70;99.90
20070;DHT22;10195;50.868;4.382;2023-05-17T06:27:39;13.40;99.90
20070;DHT22;10195;50.868;4.382;2023-05-17T06:30:06;13.30;99.90
20070;DHT22;10195;50.868;4.382;2023-05-17T06:32:31;13.40;99.90
20070;DHT22;10195;50.868;4.382;2023-05-17T06:34:57;13.60;99.90
20070;DHT22;10195;50.868;4.382;2023-05-17T06:37:23;13.80;99.90
20070;DHT22;10195;50.868;4.382;2023-05-17T06:39:52;14.10;99.90
20070;DHT22;10195;50.868;4.382;2023-05-17T06:42:18;14.10;99.90
20070;DHT22;10195;50.868;4.382;2023-05-17T06:44:43;13.60;99.90
20070;DHT22;10195;50.868;4.382;2023-05-17T06:47:09;13.00;99.90
20070;DHT22;10195;50.868;4.382;2023-05-17T06:49:36;13.00;99.90
20070;DHT22;10195;50.868;4.382;2023-05-17T06:52:02;12.80;99.90
20070;DHT22;10195;50.868;4.382;2023-05-17T06:54:30;12.90;99.90
20070;DHT22;10195;50.868;4.382;2023-05-17T06:57:00;13.30;99.90
20070;DHT22;10195;50.868;4.382;2023-05-17T06:59:26;13.40;99.90
20070;DHT22;10195;50.868;4.382;2023-05-17T07:01:52;13.60;99.90
20070;DHT22;10195;50.868;4.382;2023-05-17T07:04:17;13.50;99.90
20070;DHT22;10195;50.868;4.382;2023-05-17T07:06:43;13.80;99.90
20070;DHT22;10195;50.868;4.382;2023-05-17T07:09:09;14.40;99.90
20070;DHT22;10195;50.868;4.382;2023-05-17T07:11:34;14.90;99.90
20070;DHT22;10195;50.868;4.382;2023-05-17T07:14:00;14.50;99.90
20070;DHT22;10195;50.868;4.382;2023-05-17T07:16:26;13.80;99.90
20070;DHT22;10195;50.868;4.382;2023-05-17T07:18:51;13.30;99.90
20070;DHT22;10195;50.868;4.382;2023-05-17T07:21:17;13.60;99.90
20070;DHT22;10195;50.868;4.382;2023-05-17T07:23:43;13.70;99.90
20070;DHT22;10195;50.868;4.382;2023-05-17T07:26:08;13.90;99.90
20070;DHT22;10195;50.868;4.382;2023-05-17T07:28:34;14.20;99.90
20070;DHT22;10195;50.868;4.382;2023-05-17T07:31:00;13.90;99.90
20070;DHT22;10195;50.868;4.382;2023-05-17T07:33:26;13.90;99.90
20070;DHT22;10195;50.868;4.382;2023-05-17T07:35:51;13.70;99.90
20070;DHT22;10195;50.868;4.382;2023-05-17T07:38:18;13.70;99.90
20070;DHT22;10195;50.868;4.382;2023-05-17T07:40:43;13.50;99.90
20070;DHT22;10195;50.868;4.382;2023-05-17T07:43:09;13.60;99.90
20070;DHT22;10195;50.868;4.382;2023-05-17T07:45:35;14.00;99.90
20070;DHT22;10195;50.868;4.382;2023-05-17T07:48:00;14.70;99.90
20070;DHT22;10195;50.868;4.382;2023-05-17T07:50:26;15.00;99.90
20070;DHT22;10195;50.868;4.382;2023-05-17T07:52:52;16.50;99.90
20070;DHT22;10195;50.868;4.382;2023-05-17T07:55:18;17.00;99.90
20070;DHT22;10195;50.868;4.382;2023-05-17T07:57:44;15.70;99.90
20070;DHT22;10195;50.868;4.382;2023-05-17T08:00:12;15.30;99.90
20070;DHT22;10195;50.868;4.382;2023-05-17T08:02:39;14.90;99.90
20070;DHT22;10195;50.868;4.382;2023-05-17T08:05:05;15.20;99.90
20070;DHT22;10195;50.868;4.382;2023-05-17T08:07:31;15.70;99.90
20070;DHT22;10195;50.868;4.382;2023-05-17T08:09:57;16.90;99.90
20070;DHT22;10195;50.868;4.382;2023-05-17T08:12:23;17.80;99.90
20070;DHT22;10195;50.868;4.382;2023-05-17T08:14:48;17.20;99.90
20070;DHT22;10195;50.868;4.382;2023-05-17T08:17:14;16.90;99.90
20070;DHT22;10195;50.868;4.382;2023-05-17T08:19:40;16.30;99.90
20070;DHT22;10195;50.868;4.382;2023-05-17T08:22:05;16.20;99.90
20070;DHT22;10195;50.868;4.382;2023-05-17T08:24:31;15.90;99.90
20070;DHT22;10195;50.868;4.382;2023-05-17T08:26:57;15.50;99.90
20070;DHT22;10195;50.868;4.382;2023-05-17T08:29:22;16.40;99.90
20070;DHT22;10195;50.868;4.382;2023-05-17T08:31:48;16.70;99.90
20070;DHT22;10195;50.868;4.382;2023-05-17T08:34:14;16.90;99.90
20070;DHT22;10195;50.868;4.382;2023-05-17T08:36:39;16.80;99.90
20070;DHT22;10195;50.868;4.382;2023-05-17T08:39:05;17.40;99.90
20070;DHT22;10195;50.868;4.382;2023-05-17T08:41:32;17.10;99.90
20070;DHT22;10195;50.868;4.382;2023-05-17T08:43:58;16.90;99.90
20070;DHT22;10195;50.868;4.382;2023-05-17T08:46:25;16.70;99.90
20070;DHT22;10195;50.868;4.382;2023-05-17T08:48:52;17.00;99.90
20070;DHT22;10195;50.868;4.382;2023-05-17T08:51:21;17.40;99.90
20070;DHT22;10195;50.868;4.382;2023-05-17T08:53:47;17.00;99.90
20070;DHT22;10195;50.868;4.382;2023-05-17T08:56:15;16.70;99.90
20070;DHT22;10195;50.868;4.382;2023-05-17T08:58:44;16.10;99.90
20070;DHT22;10195;50.868;4.382;2023-05-17T09:01:11;15.40;99.90
20070;DHT22;10195;50.868;4.382;2023-05-17T09:03:39;15.10;99.90
20070;DHT22;10195;50.868;4.382;2023-05-17T09:06:06;15.30;99.90
20070;DHT22;10195;50.868;4.382;2023-05-17T09:08:32;15.30;99.90
20070;DHT22;10195;50.868;4.382;2023-05-17T09:10:58;15.30;99.90
20070;DHT22;10195;50.868;4.382;2023-05-17T09:13:24;15.00;99.90
20070;DHT22;10195;50.868;4.382;2023-05-17T09:15:50;15.10;99.90
20070;DHT22;10195;50.868;4.382;2023-05-17T09:18:16;16.00;99.90
20070;DHT22;10195;50.868;4.382;2023-05-17T09:20:49;16.20;99.90
20070;DHT22;10195;50.868;4.382;2023-05-17T09:23:19;16.60;99.90
20070;DHT22;10195;50.868;4.382;2023-05-17T09:25:48;17.00;99.90
20070;DHT22;10195;50.868;4.382;2023-05-17T09:28:14;17.30;99.90
20070;DHT22;10195;50.868;4.382;2023-05-17T09:30:42;17.90;99.90
20070;DHT22;10195;50.868;4.382;2023-05-17T09:33:09;18.80;99.90
20070;DHT22;10195;50.868;4.382;2023-05-17T09:35:36;18.70;99.90
20070;DHT22;10195;50.868;4.382;2023-05-17T09:38:10;18.70;99.90
20070;DHT22;10195;50.868;4.382;2023-05-17T09:40:41;18.00;99.90
20070;DHT22;10195;50.868;4.382;2023-05-17T09:43:08;17.80;99.90
20070;DHT22;10195;50.868;4.382;2023-05-17T09:45:34;18.30;99.90
20070;DHT22;10195;50.868;4.382;2023-05-17T09:48:15;18.60;99.90
20070;DHT22;10195;50.868;4.382;2023-05-17T09:50:48;18.00;99.90
20070;DHT22;10195;50.868;4.382;2023-05-17T09:53:26;19.00;99.90
20070;DHT22;10195;50.868;4.382;2023-05-17T09:55:57;19.50;99.90
20070;DHT22;10195;50.868;4.382;2023-05-17T09:58:24;18.30;99.90
20070;DHT22;10195;50.868;4.382;2023-05-17T10:01:00;17.20;99.90
20070;DHT22;10195;50.868;4.382;2023-05-17T10:03:30;17.10;99.90
20070;DHT22;10195;50.868;4.382;2023-05-17T10:05:58;17.30;99.90
20070;DHT22;10195;50.868;4.382;2023-05-17T10:08:25;17.40;99.90
20070;DHT22;10195;50.868;4.382;2023-05-17T10:10:57;17.60;99.90
20070;DHT22;10195;50.868;4.382;2023-05-17T10:13:31;17.90;99.90
20070;DHT22;10195;50.868;4.382;2023-05-17T10:15:59;17.60;99.90
20070;DHT22;10195;50.868;4.382;2023-05-17T10:18:26;17.20;99.90
20070;DHT22;10195;50.868;4.382;2023-05-17T10:20:53;17.50;99.90
20070;DHT22;10195;50.868;4.382;2023-05-17T10:23:20;18.20;99.90
20070;DHT22;10195;50.868;4.382;2023-05-17T10:25:46;18.20;99.90
20070;DHT22;10195;50.868;4.382;2023-05-17T10:28:15;17.30;99.90
20070;DHT22;10195;50.868;4.382;2023-05-17T10:30:42;16.70;99.90
20070;DHT22;10195;50.868;4.382;2023-05-17T10:33:08;16.30;99.90
20070;DHT22;10195;50.868;4.382;2023-05-17T10:35:37;16.30;99.90
20070;DHT22;10195;50.868;4.382;2023-05-17T10:38:03;16.40;99.90
20070;DHT22;10195;50.868;4.382;2023-05-17T10:40:29;16.70;99.90
20070;DHT22;10195;50.868;4.382;2023-05-17T10:42:57;17.30;99.90
20070;DHT22;10195;50.868;4.382;2023-05-17T10:45:24;17.70;99.90
20070;DHT22;10195;50.868;4.382;2023-05-17T10:47:51;18.00;99.90
20070;DHT22;10195;50.868;4.382;2023-05-17T10:50:25;17.70;99.90
20070;DHT22;10195;50.868;4.382;2023-05-17T10:52:52;17.40;99.90
20070;DHT22;10195;50.868;4.382;2023-05-17T10:55:27;16.90;99.90
20070;DHT22;10195;50.868;4.382;2023-05-17T10:58:15;17.20;99.90
20070;DHT22;10195;50.868;4.382;2023-05-17T11:00:46;17.40;99.90
20070;DHT22;10195;50.868;4.382;2023-05-17T11:03:14;17.60;99.90
20070;DHT22;10195;50.868;4.382;2023-05-17T11:05:43;17.60;99.90
20070;DHT22;10195;50.868;4.382;2023-05-17T11:08:13;17.80;99.90
20070;DHT22;10195;50.868;4.382;2023-05-17T11:11:12;18.10;99.90
20070;DHT22;10195;50.868;4.382;2023-05-17T11:13:51;17.70;99.90
20070;DHT22;10195;50.868;4.382;2023-05-17T11:16:20;17.80;99.90
20070;DHT22;10195;50.868;4.382;2023-05-17T11:18:50;17.70;99.90
20070;DHT22;10195;50.868;4.382;2023-05-17T11:21:17;17.60;99.90
20070;DHT22;10195;50.868;4.382;2023-05-17T11:23:44;17.40;99.90
20070;DHT22;10195;50.868;4.382;2023-05-17T11:26:21;17.50;99.90
20070;DHT22;10195;50.868;4.382;2023-05-17T11:28:47;17.40;99.90
20070;DHT22;10195;50.868;4.382;2023-05-17T11:31:13;17.70;99.90
20070;DHT22;10195;50.868;4.382;2023-05-17T11:33:45;17.40;99.90
20070;DHT22;10195;50.868;4.382;2023-05-17T11:36:29;17.40;99.90
20070;DHT22;10195;50.868;4.382;2023-05-17T11:39:11;17.90;99.90
20070;DHT22;10195;50.868;4.382;2023-05-17T11:41:38;18.30;99.90
20070;DHT22;10195;50.868;4.382;2023-05-17T11:44:06;17.80;99.90
20070;DHT22;10195;50.868;4.382;2023-05-17T11:46:32;17.50;99.90
20070;DHT22;10195;50.868;4.382;2023-05-17T11:48:59;17.70;99.90
20070;DHT22;10195;50.868;4.382;2023-05-17T11:51:26;18.10;99.90
20070;DHT22;10195;50.868;4.382;2023-05-17T11:53:55;18.20;99.90
20070;DHT22;10195;50.868;4.382;2023-05-17T11:56:23;18.20;99.90
20070;DHT22;10195;50.868;4.382;2023-05-17T11:58:52;18.10;99.90
20070;DHT22;10195;50.868;4.382;2023-05-17T12:01:18;17.70;99.90
20070;DHT22;10195;50.868;4.382;2023-05-17T12:03:44;17.80;99.90
20070;DHT22;10195;50.868;4.382;2023-05-17T12:06:14;18.00;99.90
20070;DHT22;10195;50.868;4.382;2023-05-17T12:08:45;18.20;99.90
20070;DHT22;10195;50.868;4.382;2023-05-17T12:11:13;18.00;99.90
20070;DHT22;10195;50.868;4.382;2023-05-17T12:13:39;18.20;99.90
20070;DHT22;10195;50.868;4.382;2023-05-17T12:16:11;18.00;99.90
20070;DHT22;10195;50.868;4.382;2023-05-17T12:18:42;17.60;99.90
20070;DHT22;10195;50.868;4.382;2023-05-17T12:21:09;17.40;99.90
20070;DHT22;10195;50.868;4.382;2023-05-17T12:23:42;17.00;99.90
20070;DHT22;10195;50.868;4.382;2023-05-17T12:26:10;16.90;99.90
20070;DHT22;10195;50.868;4.382;2023-05-17T12:28:38;17.40;99.90
20070;DHT22;10195;50.868;4.382;2023-05-17T12:31:06;17.60;99.90
20070;DHT22;10195;50.868;4.382;2023-05-17T12:33:38;17.60;99.90
20070;DHT22;10195;50.868;4.382;2023-05-17T12:36:06;17.30;99.90
20070;DHT22;10195;50.868;4.382;2023-05-17T12:38:33;17.30;99.90
20070;DHT22;10195;50.868;4.382;2023-05-17T12:41:01;17.40;99.90
20070;DHT22;10195;50.868;4.382;2023-05-17T12:43:28;17.70;99.90
20070;DHT22;10195;50.868;4.382;2023-05-17T12:46:05;17.50;99.90
20070;DHT22;10195;50.868;4.382;2023-05-17T12:48:33;17.20;99.90
20070;DHT22;10195;50.868;4.382;2023-05-17T12:53:41;17.40;99.90
20070;DHT22;10195;50.868;4.382;2023-05-17T12:56:08;17.50;99.90
20070;DHT22;10195;50.868;4.382;2023-05-17T12:58:38;17.20;99.90
20070;DHT22;10195;50.868;4.382;2023-05-17T13:01:04;17.40;99.90
20070;DHT22;10195;50.868;4.382;2023-05-17T13:03:35;17.30;99.90
20070;DHT22;10195;50.868;4.382;2023-05-17T13:06:06;17.20;99.90
20070;DHT22;10195;50.868;4.382;2023-05-17T13:08:34;17.40;99.90
20070;DHT22;10195;50.868;4.382;2023-05-17T13:11:07;17.60;99.90
20070;DHT22;10195;50.868;4.382;2023-05-17T13:13:33;17.30;99.90
20070;DHT22;10195;50.868;4.382;2023-05-17T13:15:59;17.70;99.90
20070;DHT22;10195;50.868;4.382;2023-05-17T13:18:24;17.90;99.90
20070;DHT22;10195;50.868;4.382;2023-05-17T13:20:50;17.60;99.90
20070;DHT22;10195;50.868;4.382;2023-05-17T13:23:16;17.60;99.90
20070;DHT22;10195;50.868;4.382;2023-05-17T13:25:42;17.50;99.90
20070;DHT22;10195;50.868;4.382;2023-05-17T13:28:07;17.50;99.90
20070;DHT22;10195;50.868;4.382;2023-05-17T13:30:33;17.60;99.90
20070;DHT22;10195;50.868;4.382;2023-05-17T13:32:59;17.50;99.90
20070;DHT22;10195;50.868;4.382;2023-05-17T13:35:25;17.40;99.90
20070;DHT22;10195;50.868;4.382;2023-05-17T13:37:50;17.60;99.90
20070;DHT22;10195;50.868;4.382;2023-05-17T13:40:17;17.70;99.90
20070;DHT22;10195;50.868;4.382;2023-05-17T13:42:43;17.50;99.90
20070;DHT22;10195;50.868;4.382;2023-05-17T13:45:09;17.50;99.90
20070;DHT22;10195;50.868;4.382;2023-05-17T13:47:36;17.40;99.90
20070;DHT22;10195;50.868;4.382;2023-05-17T13:50:02;17.40;99.90
20070;DHT22;10195;50.868;4.382;2023-05-17T13:52:28;17.30;99.90
20070;DHT22;10195;50.868;4.382;2023-05-17T13:54:55;17.30;99.90
20070;DHT22;10195;50.868;4.382;2023-05-17T13:57:22;17.40;99.90
20070;DHT22;10195;50.868;4.382;2023-05-17T13:59:48;17.20;99.90
20070;DHT22;10195;50.868;4.382;2023-05-17T14:02:13;17.00;99.90
20070;DHT22;10195;50.868;4.382;2023-05-17T14:04:39;17.00;99.90
20070;DHT22;10195;50.868;4.382;2023-05-17T14:07:05;17.20;99.90
20070;DHT22;10195;50.868;4.382;2023-05-17T14:09:31;17.50;99.90
20070;DHT22;10195;50.868;4.382;2023-05-17T14:12:01;17.50;99.90
20070;DHT22;10195;50.868;4.382;2023-05-17T14:14:27;17.60;99.90
20070;DHT22;10195;50.868;4.382;2023-05-17T14:16:56;18.00;99.90
20070;DHT22;10195;50.868;4.382;2023-05-17T14:19:22;17.90;99.90
20070;DHT22;10195;50.868;4.382;2023-05-17T14:21:48;17.60;99.90
20070;DHT22;10195;50.868;4.382;2023-05-17T14:24:14;17.40;99.90
20070;DHT22;10195;50.868;4.382;2023-05-17T14:26:40;17.40;99.90
20070;DHT22;10195;50.868;4.382;2023-05-17T14:29:06;17.40;99.90
20070;DHT22;10195;50.868;4.382;2023-05-17T14:31:32;17.30;99.90
20070;DHT22;10195;50.868;4.382;2023-05-17T14:33:58;17.20;99.90
20070;DHT22;10195;50.868;4.382;2023-05-17T14:36:28;17.30;99.90
20070;DHT22;10195;50.868;4.382;2023-05-17T14:38:53;17.50;99.90
20070;DHT22;10195;50.868;4.382;2023-05-17T14:41:19;17.90;99.90
20070;DHT22;10195;50.868;4.382;2023-05-17T14:43:46;17.70;99.90
20070;DHT22;10195;50.868;4.382;2023-05-17T14:46:12;17.60;99.90
20070;DHT22;10195;50.868;4.382;2023-05-17T14:48:39;17.50;99.90
20070;DHT22;10195;50.868;4.382;2023-05-17T14:51:05;17.60;99.90
20070;DHT22;10195;50.868;4.382;2023-05-17T14:53:31;17.80;99.90
20070;DHT22;10195;50.868;4.382;2023-05-17T14:55:57;18.00;99.90
20070;DHT22;10195;50.868;4.382;2023-05-17T14:58:23;17.80;99.90
20070;DHT22;10195;50.868;4.382;2023-05-17T15:00:49;17.80;99.90
20070;DHT22;10195;50.868;4.382;2023-05-17T15:03:18;18.00;99.90
20070;DHT22;10195;50.868;4.382;2023-05-17T15:05:44;17.70;99.90
20070;DHT22;10195;50.868;4.382;2023-05-17T15:08:10;17.70;99.90
20070;DHT22;10195;50.868;4.382;2023-05-17T15:10:37;17.80;99.90
20070;DHT22;10195;50.868;4.382;2023-05-17T15:13:03;17.60;99.90
20070;DHT22;10195;50.868;4.382;2023-05-17T15:15:28;17.50;99.90
20070;DHT22;10195;50.868;4.382;2023-05-17T15:17:54;17.60;99.90
20070;DHT22;10195;50.868;4.382;2023-05-17T15:20:20;17.50;99.90
20070;DHT22;10195;50.868;4.382;2023-05-17T15:22:46;17.60;99.90
20070;DHT22;10195;50.868;4.382;2023-05-17T15:25:12;17.50;99.90
20070;DHT22;10195;50.868;4.382;2023-05-17T15:27:38;17.50;99.90
20070;DHT22;10195;50.868;4.382;2023-05-17T15:30:04;17.30;99.90
20070;DHT22;10195;50.868;4.382;2023-05-17T15:32:30;17.20;99.90
20070;DHT22;10195;50.868;4.382;2023-05-17T15:34:56;17.10;99.90
20070;DHT22;10195;50.868;4.382;2023-05-17T15:37:23;17.10;99.90
20070;DHT22;10195;50.868;4.382;2023-05-17T15:39:49;17.10;99.90
20070;DHT22;10195;50.868;4.382;2023-05-17T15:42:14;17.00;99.90
20070;DHT22;10195;50.868;4.382;2023-05-17T15:44:40;16.80;99.90
20070;DHT22;10195;50.868;4.382;2023-05-17T15:47:06;16.60;99.90
20070;DHT22;10195;50.868;4.382;2023-05-17T15:49:31;16.50;99.90